Time;durP1;ratioP1;P1;durP2;ratioP2;P2;SDS_P1;SDS_P2;PMS_P1;PMS_P2;Temp;Humidity;BMP_temperature;BMP_pressure;BME280_temperature;BME280_humidity;BME280_pressure;Samples;Min_cycle;Max_cycle;Signal;HPM_P1;HPM_P2
2022/12/12 00:00:44;;;;;;;19.30;13.20;;;3.40;99.90;;;;;;5073151;28;20604;-64
2022/12/12 00:03:10;;;;;;;22.33;13.33;;;3.40;99.90;;;;;;5073434;28;20172;-64
2022/12/12 00:05:39;;;;;;;19.33;11.93;;;3.30;99.90;;;;;;5073279;28;20178;-64
2022/12/12 00:08:05;;;;;;;21.30;12.60;;;3.30;99.90;;;;;;5073048;28;20653;-64
2022/12/12 00:10:31;;;;;;;20.00;12.80;;;3.30;99.90;;;;;;5073139;28;20178;-64
2022/12/12 00:12:56;;;;;;;18.83;12.80;;;3.20;99.90;;;;;;5072978;28;20175;-64
2022/12/12 00:15:22;;;;;;;19.17;12.50;;;3.20;99.90;;;;;;5073240;28;20705;-64
2022/12/12 00:17:48;;;;;;;19.33;12.77;;;3.10;99.90;;;;;;5073161;28;20538;-64
2022/12/12 00:20:13;;;;;;;19.37;12.17;;;3.10;99.90;;;;;;5073175;28;20179;-64
2022/12/12 00:22:39;;;;;;;19.47;12.73;;;3.10;99.90;;;;;;5073105;28;20532;-64
2022/12/12 00:25:06;;;;;;;20.30;11.93;;;3.10;99.90;;;;;;5072942;28;20697;-64
2022/12/12 00:27:32;;;;;;;21.43;13.07;;;3.00;99.90;;;;;;5072955;28;20171;-64
2022/12/12 00:29:58;;;;;;;23.27;12.97;;;3.00;99.90;;;;;;5073220;28;20184;-64
2022/12/12 00:32:23;;;;;;;21.07;12.70;;;2.90;99.90;;;;;;5073017;28;20181;-64
2022/12/12 00:34:49;;;;;;;20.17;12.30;;;2.90;99.90;;;;;;5076924;28;20181;-64
2022/12/12 00:37:15;;;;;;;20.43;13.40;;;2.80;99.90;;;;;;5076939;28;20206;-64
2022/12/12 00:39:41;;;;;;;22.10;13.20;;;2.80;99.90;;;;;;5076963;28;20227;-64
2022/12/12 00:42:07;;;;;;;22.03;13.37;;;2.80;99.90;;;;;;5076672;28;20640;-64
2022/12/12 00:44:33;;;;;;;22.43;13.73;;;2.80;99.90;;;;;;5077117;28;20217;-64
2022/12/12 00:46:58;;;;;;;22.87;13.17;;;2.80;99.90;;;;;;5076814;28;20193;-64
2022/12/12 00:49:24;;;;;;;22.13;13.33;;;2.70;99.90;;;;;;5076681;28;20209;-64
2022/12/12 00:51:50;;;;;;;20.97;12.93;;;2.70;99.90;;;;;;5076610;28;20228;-64
2022/12/12 00:54:15;;;;;;;22.30;14.00;;;2.70;99.90;;;;;;5076728;28;20277;-64
2022/12/12 00:56:41;;;;;;;22.87;13.87;;;2.60;99.90;;;;;;5076374;28;20240;-66
2022/12/12 00:59:07;;;;;;;21.37;13.37;;;2.60;99.90;;;;;;5076815;28;20181;-64
2022/12/12 01:01:34;;;;;;;18.83;12.77;;;2.60;99.90;;;;;;5076402;28;20177;-64
2022/12/12 01:04:00;;;;;;;19.97;12.93;;;2.60;99.90;;;;;;5076376;28;20670;-64
2022/12/12 01:06:27;;;;;;;24.50;14.47;;;2.70;99.90;;;;;;5076460;28;20174;-64
2022/12/12 01:08:53;;;;;;;21.63;13.03;;;2.80;99.90;;;;;;5076280;28;20182;-64
2022/12/12 01:11:20;;;;;;;24.63;14.00;;;2.70;99.90;;;;;;5076086;28;20185;-64
2022/12/12 01:13:48;;;;;;;23.57;13.63;;;2.70;99.90;;;;;;5076312;28;20179;-64
2022/12/12 01:16:14;;;;;;;21.97;13.17;;;2.70;99.90;;;;;;5076172;28;20642;-64
2022/12/12 01:18:40;;;;;;;22.43;14.20;;;2.70;99.90;;;;;;5076150;28;20174;-64
2022/12/12 01:21:12;;;;;;;23.53;13.37;;;2.80;99.90;;;;;;5076072;28;20170;-64
2022/12/12 01:23:38;;;;;;;21.63;13.43;;;2.80;99.90;;;;;;5075804;28;20197;-64
2022/12/12 01:26:12;;;;;;;22.60;13.73;;;2.70;99.90;;;;;;5076211;28;20200;-64
2022/12/12 01:28:38;;;;;;;22.37;13.03;;;2.70;99.90;;;;;;5076189;28;20196;-64
2022/12/12 01:31:04;;;;;;;25.13;13.47;;;2.70;99.90;;;;;;5076233;28;20189;-64
2022/12/12 01:33:30;;;;;;;20.03;12.70;;;2.60;99.90;;;;;;5075839;28;20170;-64
2022/12/12 01:35:56;;;;;;;19.60;12.67;;;2.50;99.90;;;;;;5075758;28;20184;-62
2022/12/12 01:38:23;;;;;;;22.70;13.53;;;2.50;99.90;;;;;;5075693;28;20208;-63
2022/12/12 01:40:50;;;;;;;18.40;13.00;;;2.50;99.90;;;;;;5075861;28;20190;-64
2022/12/12 01:43:18;;;;;;;22.80;13.80;;;2.50;99.90;;;;;;5075676;28;20257;-64
2022/12/12 01:45:59;;;;;;;22.17;13.47;;;2.50;99.90;;;;;;5074323;28;20182;-63
2022/12/12 01:48:39;;;;;;;23.03;13.77;;;2.40;99.90;;;;;;5075685;28;20169;-63
2022/12/12 01:51:16;;;;;;;20.37;13.17;;;2.40;99.90;;;;;;5075508;28;20182;-63
2022/12/12 01:53:43;;;;;;;21.20;13.30;;;2.40;99.90;;;;;;5075553;28;20193;-63
2022/12/12 01:56:12;;;;;;;22.97;13.20;;;2.30;99.90;;;;;;5075495;28;20189;-63
2022/12/12 01:58:44;;;;;;;22.80;13.23;;;2.40;99.90;;;;;;5075436;28;20178;-63
2022/12/12 02:01:11;;;;;;;21.53;13.37;;;2.30;99.90;;;;;;5075341;28;20206;-63
2022/12/12 02:03:38;;;;;;;24.20;13.80;;;2.30;99.90;;;;;;5075177;28;20692;-63
2022/12/12 02:06:07;;;;;;;22.77;13.90;;;2.30;99.90;;;;;;5075389;28;20232;-63
2022/12/12 02:08:34;;;;;;;21.70;13.77;;;2.30;99.90;;;;;;5075182;28;20635;-63
2022/12/12 02:11:00;;;;;;;20.23;13.60;;;2.30;99.90;;;;;;5075087;28;20508;-63
2022/12/12 02:13:29;;;;;;;22.37;13.87;;;2.30;99.90;;;;;;5075088;28;20177;-63
2022/12/12 02:16:25;;;;;;;22.17;13.90;;;2.30;99.90;;;;;;5075009;28;20170;-63
2022/12/12 02:19:34;;;;;;;23.20;13.83;;;2.30;99.90;;;;;;5075244;28;20181;-63
2022/12/12 02:22:35;;;;;;;21.87;13.13;;;2.20;99.90;;;;;;5074957;28;20182;-63
2022/12/12 02:25:38;;;;;;;23.90;13.63;;;2.20;99.90;;;;;;5061269;28;20238;-63
2022/12/12 02:28:35;;;;;;;21.53;12.73;;;2.10;99.90;;;;;;5074769;28;20179;-63
2022/12/12 02:31:33;;;;;;;22.17;13.27;;;2.10;99.90;;;;;;5074934;28;20174;-63
2022/12/12 02:34:19;;;;;;;21.53;13.73;;;2.10;99.90;;;;;;5074429;28;20236;-63
2022/12/12 02:36:54;;;;;;;20.70;12.27;;;2.10;99.90;;;;;;5074561;28;20174;-63
2022/12/12 02:39:36;;;;;;;23.90;13.93;;;2.20;99.90;;;;;;5074538;28;20244;-64
2022/12/12 02:42:14;;;;;;;22.97;13.40;;;2.10;99.90;;;;;;5074640;28;20177;-64
2022/12/12 02:45:15;;;;;;;22.73;12.27;;;2.10;99.90;;;;;;5074449;28;20193;-63
2022/12/12 02:47:53;;;;;;;21.60;12.97;;;2.10;99.90;;;;;;5040366;28;20242;-63
2022/12/12 02:50:23;;;;;;;22.63;13.50;;;2.10;99.90;;;;;;5074410;28;20228;-63
2022/12/12 02:52:49;;;;;;;24.70;14.40;;;2.10;99.90;;;;;;5074462;28;20170;-63
2022/12/12 02:55:15;;;;;;;23.13;13.07;;;2.10;99.90;;;;;;5074481;28;20227;-63
2022/12/12 02:57:41;;;;;;;24.57;14.10;;;2.20;99.90;;;;;;5073921;28;20174;-63
2022/12/12 03:00:11;;;;;;;22.80;14.17;;;2.10;99.90;;;;;;5074449;28;20185;-63
2022/12/12 03:09:41;;;;;;;23.27;13.30;;;2.00;99.90;;;;;;5074237;28;20227;-63
2022/12/12 03:12:13;;;;;;;22.03;12.57;;;1.90;99.90;;;;;;5073884;28;20177;-63
2022/12/12 03:14:55;;;;;;;22.03;13.73;;;1.90;99.90;;;;;;5073840;28;20180;-63
2022/12/12 03:17:38;;;;;;;21.63;13.50;;;2.00;99.90;;;;;;5073931;28;20170;-63
2022/12/12 03:20:12;;;;;;;20.97;12.37;;;2.00;99.90;;;;;;5073844;28;20265;-63
2022/12/12 03:23:08;;;;;;;21.77;12.57;;;1.90;99.90;;;;;;5073684;28;20246;-63
2022/12/12 03:25:40;;;;;;;23.23;12.83;;;1.80;99.90;;;;;;5073674;28;20218;-63
2022/12/12 03:28:16;;;;;;;20.27;13.17;;;1.60;99.90;;;;;;5073984;28;20174;-64
2022/12/12 03:30:45;;;;;;;20.17;12.80;;;1.60;99.90;;;;;;5073705;28;20197;-64
2022/12/12 03:33:24;;;;;;;21.40;12.47;;;1.40;99.90;;;;;;5073688;28;20176;-63
2022/12/12 03:35:59;;;;;;;21.70;12.67;;;1.50;99.90;;;;;;5073678;28;20174;-64
2022/12/12 03:38:31;;;;;;;18.40;11.93;;;1.50;99.90;;;;;;5073587;28;20173;-63
2022/12/12 03:41:01;;;;;;;19.20;12.33;;;1.50;99.90;;;;;;5073402;28;20175;-63
2022/12/12 03:43:37;;;;;;;19.87;12.33;;;1.60;99.90;;;;;;5073196;28;20171;-63
2022/12/12 03:46:06;;;;;;;20.17;12.90;;;1.60;99.90;;;;;;5073570;28;20226;-63
2022/12/12 03:48:36;;;;;;;20.53;12.33;;;1.70;99.90;;;;;;5073431;28;20182;-63
2022/12/12 03:51:11;;;;;;;21.57;12.93;;;1.60;99.90;;;;;;5073395;28;20225;-64
2022/12/12 03:54:06;;;;;;;22.27;12.47;;;1.60;99.90;;;;;;5073341;28;20169;-65
2022/12/12 03:56:51;;;;;;;18.97;12.80;;;1.70;99.90;;;;;;5072794;28;20237;-62
2022/12/12 03:59:22;;;;;;;22.43;13.00;;;1.60;99.90;;;;;;5073301;28;20178;-63
2022/12/12 04:01:50;;;;;;;18.73;12.13;;;1.60;99.90;;;;;;5073351;28;20538;-64
2022/12/12 04:04:33;;;;;;;19.60;12.93;;;1.40;99.90;;;;;;5073014;28;20199;-64
2022/12/12 04:07:18;;;;;;;21.70;13.23;;;1.40;99.90;;;;;;5073353;28;20177;-63
2022/12/12 04:15:47;;;;;;;18.90;12.23;;;1.40;99.90;;;;;;5073299;28;20643;-63
2022/12/12 04:18:30;;;;;;;20.80;12.03;;;1.50;99.90;;;;;;5073132;28;20184;-64
2022/12/12 04:23:58;;;;;;;19.07;11.83;;;1.30;99.90;;;;;;5073140;28;20273;-64
2022/12/12 04:26:43;;;;;;;18.27;12.23;;;1.20;99.90;;;;;;5073208;28;20218;-64
2022/12/12 04:29:08;;;;;;;22.60;12.50;;;1.20;99.90;;;;;;5071609;28;20586;-63
2022/12/12 04:31:46;;;;;;;19.77;11.77;;;1.10;99.90;;;;;;5072799;28;20650;-64
2022/12/12 04:34:21;;;;;;;19.57;12.47;;;1.20;99.90;;;;;;5073139;28;20175;-64
2022/12/12 04:36:48;;;;;;;20.43;12.40;;;1.20;99.90;;;;;;5072973;28;20199;-64
2022/12/12 04:39:16;;;;;;;20.00;12.10;;;1.10;99.90;;;;;;5072861;28;20186;-64
2022/12/12 04:41:47;;;;;;;18.17;12.23;;;1.10;99.90;;;;;;5072705;28;20185;-67
2022/12/12 04:44:14;;;;;;;20.97;12.43;;;1.10;99.90;;;;;;5073111;28;20263;-64
2022/12/12 04:46:40;;;;;;;23.20;12.87;;;1.10;99.90;;;;;;5072820;28;20258;-64
2022/12/12 04:49:14;;;;;;;21.10;12.80;;;1.20;99.90;;;;;;5072958;28;20175;-64
2022/12/12 04:51:44;;;;;;;21.13;12.50;;;1.20;99.90;;;;;;5072786;28;20237;-64
2022/12/12 04:54:13;;;;;;;22.07;13.37;;;1.20;99.90;;;;;;5072660;28;20185;-63
2022/12/12 04:56:43;;;;;;;20.67;13.50;;;1.10;99.90;;;;;;5072762;28;20186;-63
2022/12/12 04:59:08;;;;;;;22.47;13.37;;;1.10;99.90;;;;;;5072980;28;20253;-64
2022/12/12 05:01:42;;;;;;;23.17;13.90;;;1.10;99.90;;;;;;5073029;28;20270;-64
2022/12/12 05:04:29;;;;;;;23.47;12.77;;;1.10;99.90;;;;;;5072573;28;20701;-63
2022/12/12 05:07:09;;;;;;;21.07;13.53;;;1.10;99.90;;;;;;5072582;28;20201;-64
2022/12/12 05:09:36;;;;;;;19.43;12.50;;;1.10;99.90;;;;;;5072738;28;20213;-63
2022/12/12 05:12:01;;;;;;;23.67;14.03;;;1.10;99.90;;;;;;5072536;28;20176;-64
2022/12/12 05:14:29;;;;;;;24.73;14.40;;;1.10;99.90;;;;;;5072791;28;20670;-64
2022/12/12 05:16:59;;;;;;;23.27;13.50;;;1.00;99.90;;;;;;5072503;28;20170;-64
2022/12/12 05:19:25;;;;;;;22.70;13.80;;;1.00;99.90;;;;;;5074050;28;20554;-64
2022/12/12 05:21:51;;;;;;;22.57;14.17;;;1.00;99.90;;;;;;5076158;28;20229;-64
2022/12/12 05:24:17;;;;;;;21.87;13.83;;;0.90;99.90;;;;;;5075709;28;20225;-64
2022/12/12 05:26:42;;;;;;;21.03;12.97;;;0.80;99.90;;;;;;5075987;28;20187;-64
2022/12/12 05:29:08;;;;;;;23.40;14.10;;;0.90;99.90;;;;;;5075955;28;20209;-64
2022/12/12 05:31:34;;;;;;;22.77;13.90;;;0.80;99.90;;;;;;5075799;28;20659;-65
2022/12/12 05:34:00;;;;;;;21.67;13.33;;;0.90;99.90;;;;;;5075820;28;20185;-65
2022/12/12 05:36:26;;;;;;;20.43;13.00;;;0.90;99.90;;;;;;5075955;28;20540;-65
2022/12/12 05:38:52;;;;;;;22.50;12.67;;;1.00;99.90;;;;;;5075841;28;20167;-65
2022/12/12 05:41:17;;;;;;;23.80;14.03;;;1.00;99.90;;;;;;5075737;28;20181;-65
2022/12/12 05:43:43;;;;;;;22.40;13.67;;;0.90;99.90;;;;;;5075538;28;20210;-65
2022/12/12 05:46:08;;;;;;;32.43;15.10;;;0.90;99.90;;;;;;5075633;28;20171;-65
2022/12/12 05:48:34;;;;;;;23.43;13.40;;;0.90;99.90;;;;;;5075498;28;20175;-65
2022/12/12 05:51:01;;;;;;;22.60;14.57;;;0.90;99.90;;;;;;5074212;28;20179;-65
2022/12/12 05:53:28;;;;;;;22.00;14.23;;;0.90;99.90;;;;;;5075491;28;20209;-65
2022/12/12 05:55:53;;;;;;;26.97;14.70;;;0.90;99.90;;;;;;5075508;28;20210;-66
2022/12/12 05:58:19;;;;;;;21.50;13.63;;;0.90;99.90;;;;;;5075421;28;20634;-61
2022/12/12 06:00:50;;;;;;;24.60;14.57;;;0.90;99.90;;;;;;5075267;28;20182;-63
2022/12/12 06:03:16;;;;;;;25.00;14.40;;;0.90;99.90;;;;;;5075456;28;20186;-63
2022/12/12 06:05:42;;;;;;;26.93;15.27;;;0.90;99.90;;;;;;5075448;28;20206;-63
2022/12/12 06:08:08;;;;;;;23.57;14.37;;;0.90;99.90;;;;;;5075161;28;20220;-63
2022/12/12 06:10:33;;;;;;;25.67;14.23;;;0.90;99.90;;;;;;5075279;28;20178;-65
2022/12/12 06:12:59;;;;;;;23.57;13.40;;;0.80;99.90;;;;;;5075081;28;20276;-63
2022/12/12 06:15:25;;;;;;;21.50;14.43;;;0.80;99.90;;;;;;5074862;28;20182;-64
2022/12/12 06:17:50;;;;;;;26.03;15.07;;;0.80;99.90;;;;;;5075266;28;20229;-64
2022/12/12 06:20:17;;;;;;;26.13;16.23;;;0.80;99.90;;;;;;5075185;28;20207;-64
2022/12/12 06:22:43;;;;;;;25.17;15.77;;;0.70;99.90;;;;;;5075014;28;20182;-64
2022/12/12 06:25:09;;;;;;;29.00;17.83;;;0.80;99.90;;;;;;5074734;28;20219;-64
2022/12/12 06:27:35;;;;;;;25.10;16.70;;;0.70;99.90;;;;;;5074933;28;20213;-64
2022/12/12 06:30:02;;;;;;;26.17;17.17;;;0.60;99.90;;;;;;5074055;28;20198;-63
2022/12/12 06:32:28;;;;;;;27.23;16.90;;;0.60;99.90;;;;;;5073182;28;20183;-63
2022/12/12 06:34:56;;;;;;;28.47;17.13;;;0.60;99.90;;;;;;5072375;28;20651;-63
2022/12/12 06:37:22;;;;;;;26.87;16.90;;;0.60;99.90;;;;;;5072999;28;20175;-62
2022/12/12 06:39:48;;;;;;;24.30;14.70;;;0.60;99.90;;;;;;5071938;28;20197;-64
2022/12/12 06:42:14;;;;;;;26.43;14.10;;;0.60;99.90;;;;;;5072887;28;20166;-64
2022/12/12 06:44:42;;;;;;;20.93;13.80;;;0.50;99.90;;;;;;5072823;28;20256;-63
2022/12/12 06:47:08;;;;;;;24.10;13.77;;;0.50;99.90;;;;;;5073223;28;20210;-63
2022/12/12 06:49:34;;;;;;;25.33;13.87;;;0.50;99.90;;;;;;5072933;28;20647;-64
2022/12/12 06:52:01;;;;;;;21.13;13.83;;;0.60;99.90;;;;;;5060252;28;20298;-64
2022/12/12 06:54:27;;;;;;;25.80;15.37;;;0.60;99.90;;;;;;5053315;28;20706;-64
2022/12/12 06:56:53;;;;;;;27.53;16.47;;;0.60;99.90;;;;;;5035853;28;20217;-64
2022/12/12 06:59:19;;;;;;;27.33;16.27;;;0.60;99.90;;;;;;5053237;28;20175;-64
2022/12/12 07:01:46;;;;;;;27.20;15.57;;;0.50;99.90;;;;;;5053090;28;20653;-64
2022/12/12 07:04:14;;;;;;;26.00;15.33;;;0.50;99.90;;;;;;5051823;28;20215;-64
2022/12/12 07:06:40;;;;;;;27.03;16.10;;;0.50;99.90;;;;;;5052895;28;20180;-63
2022/12/12 07:09:08;;;;;;;24.10;14.90;;;0.50;99.90;;;;;;5051951;28;20267;-64
2022/12/12 07:11:35;;;;;;;24.60;14.50;;;0.40;99.90;;;;;;5053528;28;20176;-64
2022/12/12 07:14:02;;;;;;;35.77;15.47;;;0.50;99.90;;;;;;5052617;28;20536;-64
2022/12/12 07:16:28;;;;;;;31.23;15.33;;;0.50;99.90;;;;;;5051689;28;20200;-64
2022/12/12 07:18:54;;;;;;;35.53;15.70;;;0.40;99.90;;;;;;5051589;28;20175;-64
2022/12/12 07:21:20;;;;;;;29.47;16.33;;;0.40;99.90;;;;;;5053538;28;20199;-66
2022/12/12 07:23:46;;;;;;;26.03;15.07;;;0.40;99.90;;;;;;5051187;28;20207;-63
2022/12/12 07:26:14;;;;;;;25.13;15.07;;;0.40;99.90;;;;;;5055722;28;20265;-64
2022/12/12 07:28:40;;;;;;;23.87;14.13;;;0.40;99.90;;;;;;5072487;28;20170;-64
2022/12/12 07:31:13;;;;;;;24.20;14.60;;;0.40;99.90;;;;;;5071970;28;20186;-56
2022/12/12 07:33:40;;;;;;;22.00;14.17;;;0.40;99.90;;;;;;5071977;28;20175;-63
2022/12/12 07:36:06;;;;;;;22.73;13.37;;;0.40;99.90;;;;;;5070722;28;20705;-64
2022/12/12 07:38:33;;;;;;;25.67;14.40;;;0.40;99.90;;;;;;5072793;28;20257;-63
2022/12/12 07:41:07;;;;;;;25.33;13.60;;;0.40;99.90;;;;;;5072785;28;20244;-63
2022/12/12 07:43:38;;;;;;;25.13;13.90;;;0.40;99.90;;;;;;5072902;28;20573;-64
2022/12/12 07:46:08;;;;;;;28.67;17.33;;;0.40;99.90;;;;;;5073435;28;20175;-63
2022/12/12 07:48:35;;;;;;;38.50;25.07;;;0.40;99.90;;;;;;5073385;28;20628;-64
2022/12/12 07:51:01;;;;;;;32.60;22.73;;;0.40;99.90;;;;;;5073329;28;20171;-64
2022/12/12 07:53:28;;;;;;;35.30;19.67;;;0.40;99.90;;;;;;5073081;28;20171;-63
2022/12/12 07:55:53;;;;;;;29.20;19.17;;;0.40;99.90;;;;;;5073424;28;20210;-63
2022/12/12 07:58:19;;;;;;;27.77;17.67;;;0.40;99.90;;;;;;5073263;28;20175;-64
2022/12/12 08:00:44;;;;;;;25.10;16.13;;;0.50;99.90;;;;;;5073270;28;20175;-63
2022/12/12 08:03:10;;;;;;;23.00;15.97;;;0.40;99.90;;;;;;5073215;28;20187;-63
2022/12/12 08:05:40;;;;;;;26.57;15.07;;;0.40;99.90;;;;;;5072895;28;20218;-63
2022/12/12 08:08:06;;;;;;;28.83;18.17;;;0.40;99.90;;;;;;5072940;28;20179;-64
2022/12/12 08:10:31;;;;;;;27.90;15.70;;;0.40;99.90;;;;;;5073290;28;20531;-64
2022/12/12 08:12:57;;;;;;;25.33;15.73;;;0.40;99.90;;;;;;5073178;28;20181;-64
2022/12/12 08:15:23;;;;;;;25.17;14.80;;;0.50;99.90;;;;;;5073426;28;20194;-64
2022/12/12 08:17:48;;;;;;;23.93;13.47;;;0.50;99.90;;;;;;5072947;28;20232;-64
2022/12/12 08:20:15;;;;;;;24.77;14.33;;;0.50;99.90;;;;;;5073012;28;20183;-64
2022/12/12 08:22:41;;;;;;;28.47;16.60;;;0.40;99.90;;;;;;5072738;28;20715;-64
2022/12/12 08:25:07;;;;;;;28.10;15.63;;;0.50;99.90;;;;;;5072884;28;20313;-63
2022/12/12 08:27:33;;;;;;;25.57;15.60;;;0.50;99.90;;;;;;5073016;28;20183;-64
2022/12/12 08:29:58;;;;;;;25.60;15.60;;;0.60;99.90;;;;;;5072988;28;20270;-63
2022/12/12 08:32:24;;;;;;;28.47;15.70;;;0.50;99.90;;;;;;5072883;28;20178;-64
2022/12/12 08:34:54;;;;;;;26.97;15.10;;;0.60;99.90;;;;;;5072769;28;20536;-63
2022/12/12 08:37:19;;;;;;;25.20;16.20;;;0.60;99.90;;;;;;5072799;28;20265;-63
2022/12/12 08:39:45;;;;;;;27.57;16.87;;;0.70;99.90;;;;;;5072929;28;20200;-64
2022/12/12 08:42:12;;;;;;;26.80;15.27;;;0.70;99.90;;;;;;5072932;28;20199;-64
2022/12/12 08:44:37;;;;;;;27.97;15.67;;;0.80;99.90;;;;;;5072726;28;20229;-64
2022/12/12 08:47:03;;;;;;;26.03;15.50;;;0.80;99.90;;;;;;5072993;28;20171;-64
2022/12/12 08:49:30;;;;;;;23.53;14.80;;;0.90;99.90;;;;;;5072661;28;20175;-63
2022/12/12 08:51:55;;;;;;;27.97;15.70;;;0.90;99.90;;;;;;5072865;28;20180;-64
2022/12/12 08:54:21;;;;;;;26.60;15.27;;;0.90;99.90;;;;;;5074430;28;20187;-62
2022/12/12 08:56:47;;;;;;;24.30;15.30;;;1.00;99.90;;;;;;5076853;28;20239;-64
2022/12/12 08:59:13;;;;;;;29.03;15.23;;;1.10;99.90;;;;;;5076549;28;20211;-64
2022/12/12 09:01:39;;;;;;;29.47;16.40;;;1.00;99.90;;;;;;5076468;28;20535;-64
2022/12/12 09:04:05;;;;;;;27.43;16.00;;;0.70;99.90;;;;;;5076223;28;20354;-64
2022/12/12 09:06:31;;;;;;;28.37;15.90;;;0.80;99.90;;;;;;5075658;28;20745;-63
2022/12/12 09:08:56;;;;;;;29.37;16.50;;;1.00;99.90;;;;;;5076162;28;20190;-64
2022/12/12 09:11:23;;;;;;;26.57;16.17;;;1.00;99.90;;;;;;5073668;28;20190;-64
2022/12/12 09:13:49;;;;;;;29.93;16.30;;;1.00;99.90;;;;;;5076395;28;20188;-65
2022/12/12 09:16:14;;;;;;;28.97;16.73;;;1.10;99.90;;;;;;5076099;28;20168;-64
2022/12/12 09:18:40;;;;;;;25.87;15.60;;;1.10;99.90;;;;;;5075987;28;20178;-64
2022/12/12 09:21:06;;;;;;;25.07;15.10;;;1.00;99.90;;;;;;5075241;28;20555;-64
2022/12/12 09:23:33;;;;;;;25.40;15.03;;;0.90;99.90;;;;;;5075756;28;20185;-64
2022/12/12 09:26:04;;;;;;;29.13;16.00;;;0.90;99.90;;;;;;5076084;28;20193;-64
2022/12/12 09:28:30;;;;;;;33.10;19.17;;;1.00;99.90;;;;;;5075934;28;20171;-64
2022/12/12 09:30:55;;;;;;;35.13;18.67;;;1.00;99.90;;;;;;5075731;28;20584;-65
2022/12/12 09:33:21;;;;;;;30.90;17.63;;;1.10;99.90;;;;;;5075667;28;20182;-64
2022/12/12 09:35:55;;;;;;;28.30;16.67;;;1.10;99.90;;;;;;5075671;28;20644;-64
2022/12/12 09:38:22;;;;;;;27.27;16.07;;;1.30;99.90;;;;;;5075412;28;20183;-64
2022/12/12 09:40:58;;;;;;;27.13;16.53;;;1.50;99.90;;;;;;5075517;28;20543;-64
2022/12/12 09:43:27;;;;;;;29.73;16.93;;;1.40;99.90;;;;;;5075674;28;20227;-64
2022/12/12 09:45:53;;;;;;;27.93;16.63;;;1.40;99.90;;;;;;5075453;28;20248;-64
2022/12/12 09:48:43;;;;;;;30.07;17.87;;;1.40;99.90;;;;;;5075739;28;20182;-64
2022/12/12 09:51:10;;;;;;;25.90;15.87;;;1.50;99.90;;;;;;5075652;28;20180;-65
2022/12/12 09:53:37;;;;;;;28.33;16.70;;;1.40;99.90;;;;;;5075434;28;20177;-65
2022/12/12 09:56:16;;;;;;;28.87;15.40;;;1.40;99.90;;;;;;5075374;28;20209;-65
2022/12/12 09:58:58;;;;;;;27.80;15.93;;;1.40;99.90;;;;;;5075673;28;20170;-65
2022/12/12 10:01:59;;;;;;;28.00;15.90;;;1.60;99.90;;;;;;5075440;28;20201;-65
2022/12/12 10:04:57;;;;;;;26.30;15.50;;;1.70;99.90;;;;;;5075234;28;20205;-65
2022/12/12 10:07:38;;;;;;;24.03;14.07;;;1.60;99.90;;;;;;5062204;28;20197;-64
2022/12/12 10:10:19;;;;;;;25.87;14.53;;;1.50;99.90;;;;;;5075411;28;20215;-65
2022/12/12 10:12:46;;;;;;;24.10;13.67;;;1.60;99.90;;;;;;5075235;28;20174;-65
2022/12/12 10:15:28;;;;;;;26.30;14.13;;;1.60;99.90;;;;;;5075036;28;20220;-65
2022/12/12 10:17:57;;;;;;;27.30;15.63;;;1.80;99.90;;;;;;5075179;28;20650;-65
2022/12/12 10:20:29;;;;;;;28.53;15.67;;;1.90;99.90;;;;;;5074934;28;20261;-65
2022/12/12 10:23:15;;;;;;;27.07;15.47;;;2.00;99.90;;;;;;5074891;28;20693;-65
2022/12/12 10:26:01;;;;;;;26.13;14.97;;;2.00;99.90;;;;;;5074544;28;20210;-65
2022/12/12 10:28:30;;;;;;;23.57;14.60;;;2.00;99.90;;;;;;5075018;28;20171;-65
2022/12/12 10:31:19;;;;;;;25.23;13.87;;;2.10;99.90;;;;;;5075081;28;20168;-65
2022/12/12 10:33:56;;;;;;;23.43;14.33;;;2.20;99.90;;;;;;5074710;28;20178;-65
2022/12/12 10:36:30;;;;;;;25.00;14.30;;;2.20;99.90;;;;;;5074824;28;20210;-65
2022/12/12 10:39:36;;;;;;;25.03;13.43;;;2.00;99.90;;;;;;5074326;28;20260;-65
2022/12/12 10:42:11;;;;;;;23.27;13.80;;;2.10;99.90;;;;;;5054494;28;20202;-65
2022/12/12 10:45:01;;;;;;;23.47;13.87;;;2.10;99.90;;;;;;5054682;28;20218;-65
2022/12/12 10:47:26;;;;;;;22.47;13.63;;;2.10;99.90;;;;;;5054549;28;20179;-65
2022/12/12 10:50:25;;;;;;;21.43;13.13;;;2.30;99.90;;;;;;5054550;28;20189;-65
2022/12/12 10:52:51;;;;;;;23.13;14.60;;;2.40;99.90;;;;;;5043797;28;20201;-65
2022/12/12 10:55:26;;;;;;;21.80;13.83;;;2.30;99.90;;;;;;5054098;28;20215;-65
2022/12/12 10:58:02;;;;;;;22.53;13.77;;;2.30;99.90;;;;;;5054520;28;20174;-65
2022/12/12 11:00:40;;;;;;;25.60;14.63;;;2.40;99.90;;;;;;5054168;28;20182;-65
2022/12/12 11:03:40;;;;;;;23.10;14.33;;;2.60;99.90;;;;;;5055116;28;20174;-65
2022/12/12 11:06:10;;;;;;;21.43;13.87;;;2.60;99.90;;;;;;5068617;28;20201;-65
2022/12/12 11:08:36;;;;;;;23.97;14.60;;;2.70;99.90;;;;;;5072146;28;20184;-65
2022/12/12 11:11:22;;;;;;;22.67;14.30;;;2.80;99.90;;;;;;5073333;28;20202;-65
2022/12/12 11:13:55;;;;;;;19.47;12.60;;;2.80;99.90;;;;;;5073715;28;20181;-65
2022/12/12 11:16:23;;;;;;;22.07;12.70;;;2.90;99.90;;;;;;5073864;28;20173;-65
2022/12/12 11:19:04;;;;;;;18.87;12.80;;;2.90;99.90;;;;;;5073988;28;20167;-65
2022/12/12 11:21:35;;;;;;;19.60;12.23;;;3.10;99.90;;;;;;5073858;28;20173;-65
2022/12/12 11:24:07;;;;;;;21.53;13.37;;;3.00;99.90;;;;;;5073319;28;20209;-65
2022/12/12 11:26:41;;;;;;;22.30;13.47;;;3.10;99.90;;;;;;5073911;28;20177;-65
2022/12/12 11:29:26;;;;;;;22.07;12.90;;;3.20;99.90;;;;;;5073781;28;20603;-65
2022/12/12 11:31:52;;;;;;;18.30;12.17;;;2.90;99.90;;;;;;5073644;28;20182;-66
2022/12/12 11:34:20;;;;;;;19.33;12.13;;;3.10;99.90;;;;;;5073484;28;20539;-65
2022/12/12 11:36:46;;;;;;;20.43;12.43;;;3.00;99.90;;;;;;5073904;28;20179;-65
2022/12/12 11:39:25;;;;;;;21.97;12.40;;;3.00;99.90;;;;;;5073881;28;20181;-65
2022/12/12 11:42:15;;;;;;;21.70;13.03;;;2.90;99.90;;;;;;5073507;28;20270;-66
2022/12/12 11:44:43;;;;;;;23.70;16.47;;;2.90;99.90;;;;;;5073309;28;20209;-65
2022/12/12 11:47:23;;;;;;;21.93;13.27;;;3.00;99.90;;;;;;5073669;28;20181;-66
2022/12/12 11:49:59;;;;;;;22.53;15.80;;;3.20;99.90;;;;;;5073619;28;20169;-65
2022/12/12 11:52:32;;;;;;;20.57;12.73;;;3.20;99.90;;;;;;5073550;28;20209;-66
2022/12/12 11:55:00;;;;;;;21.20;13.30;;;2.90;99.90;;;;;;5073182;28;20182;-66
2022/12/12 11:57:53;;;;;;;19.87;12.73;;;3.10;99.90;;;;;;5073247;28;20180;-66
2022/12/12 12:00:21;;;;;;;21.53;12.17;;;3.20;99.90;;;;;;5073408;28;20171;-66
2022/12/12 12:03:23;;;;;;;21.67;13.20;;;3.20;99.90;;;;;;5073296;28;20228;-65
2022/12/12 12:06:04;;;;;;;19.97;11.70;;;3.20;99.90;;;;;;5073277;28;20210;-66
2022/12/12 12:08:51;;;;;;;21.83;13.00;;;3.20;99.90;;;;;;5073194;28;20173;-65
2022/12/12 12:11:33;;;;;;;17.37;11.93;;;3.40;99.90;;;;;;5073171;28;20181;-66
2022/12/12 12:14:25;;;;;;;18.20;11.53;;;3.40;99.90;;;;;;5073082;28;20704;-65
2022/12/12 12:17:03;;;;;;;18.33;11.80;;;3.30;99.90;;;;;;5068879;28;20608;-66
2022/12/12 12:19:51;;;;;;;18.90;11.95;;;3.40;99.90;;;;;;5073178;28;20208;-66
2022/12/12 12:22:46;;;;;;;17.33;11.80;;;3.40;99.90;;;;;;5073117;28;20189;-66
2022/12/12 12:25:33;;;;;;;19.47;12.43;;;3.50;99.90;;;;;;5067855;28;20245;-65
2022/12/12 12:28:11;;;;;;;18.80;11.60;;;3.40;99.90;;;;;;5073052;28;20260;-65
2022/12/12 12:30:58;;;;;;;17.43;11.53;;;3.50;99.90;;;;;;5075347;28;20178;-66
2022/12/12 12:33:53;;;;;;;19.57;11.13;;;3.60;99.90;;;;;;5077370;28;20193;-66
2022/12/12 12:36:25;;;;;;;18.17;11.83;;;3.60;99.90;;;;;;5077064;28;20173;-65
2022/12/12 12:39:37;;;;;;;18.07;11.50;;;3.40;99.90;;;;;;5076825;28;20590;-66
2022/12/12 12:42:44;;;;;;;18.03;10.73;;;3.40;99.90;;;;;;5077069;28;20260;-65
2022/12/12 12:45:16;;;;;;;18.73;11.47;;;3.40;99.90;;;;;;5076260;28;20682;-65
2022/12/12 12:47:41;;;;;;;15.70;10.47;;;3.40;99.90;;;;;;5076916;28;20206;-65
2022/12/12 12:50:35;;;;;;;19.20;11.57;;;3.40;99.90;;;;;;5076837;28;20529;-66
2022/12/12 12:53:15;;;;;;;14.43;10.00;;;3.50;99.90;;;;;;5077025;28;20276;-65
2022/12/12 12:55:46;;;;;;;16.20;9.47;;;3.30;99.90;;;;;;5076531;28;20193;-65
2022/12/12 12:58:25;;;;;;;14.93;10.00;;;3.40;99.90;;;;;;5076822;28;20692;-65
2022/12/12 13:01:23;;;;;;;16.13;9.33;;;3.40;99.90;;;;;;5076660;28;20177;-65
2022/12/12 13:04:25;;;;;;;16.47;9.23;;;3.50;99.90;;;;;;5053322;28;20270;-65
2022/12/12 13:06:55;;;;;;;16.50;9.00;;;3.50;99.90;;;;;;5069603;28;20265;-65
2022/12/12 13:09:26;;;;;;;17.57;9.83;;;3.60;99.90;;;;;;5076447;28;20180;-65
2022/12/12 13:12:11;;;;;;;18.27;9.90;;;3.60;99.90;;;;;;5076290;28;20867;-65
2022/12/12 13:14:55;;;;;;;17.23;10.17;;;3.70;99.90;;;;;;5076264;28;20516;-65
2022/12/12 13:17:45;;;;;;;15.17;9.23;;;3.60;99.90;;;;;;5075427;28;20219;-65
2022/12/12 13:20:16;;;;;;;18.77;9.53;;;3.50;99.90;;;;;;5056131;28;20185;-65